sensor_id;sensor_type;location;lat;lon;timestamp;P1;durP1;ratioP1;P2;durP2;ratioP2
42096;SDS011;27754;45.414;11.084;2024-01-30T00:01:10;83.88;;;31.83;;
42096;SDS011;27754;45.414;11.084;2024-01-30T00:03:37;231.27;;;39.88;;
42096;SDS011;27754;45.414;11.084;2024-01-30T00:06:04;207.23;;;37.92;;
42096;SDS011;27754;45.414;11.084;2024-01-30T00:08:32;158.48;;;35.40;;
42096;SDS011;27754;45.414;11.084;2024-01-30T00:10:59;150.20;;;35.97;;
42096;SDS011;27754;45.414;11.084;2024-01-30T00:13:27;191.82;;;36.33;;
42096;SDS011;27754;45.414;11.084;2024-01-30T00:15:54;150.18;;;33.03;;
42096;SDS011;27754;45.414;11.084;2024-01-30T00:18:21;160.52;;;34.78;;
42096;SDS011;27754;45.414;11.084;2024-01-30T00:20:48;93.45;;;31.40;;
42096;SDS011;27754;45.414;11.084;2024-01-30T00:23:15;162.50;;;34.15;;
42096;SDS011;27754;45.414;11.084;2024-01-30T00:25:42;153.77;;;36.78;;
42096;SDS011;27754;45.414;11.084;2024-01-30T00:28:09;115.85;;;32.58;;
42096;SDS011;27754;45.414;11.084;2024-01-30T00:30:36;161.82;;;36.65;;
42096;SDS011;27754;45.414;11.084;2024-01-30T00:33:06;159.35;;;39.17;;
42096;SDS011;27754;45.414;11.084;2024-01-30T00:35:34;199.80;;;37.88;;
42096;SDS011;27754;45.414;11.084;2024-01-30T00:38:01;282.52;;;42.13;;
42096;SDS011;27754;45.414;11.084;2024-01-30T00:40:28;129.10;;;34.92;;
42096;SDS011;27754;45.414;11.084;2024-01-30T00:42:55;182.38;;;39.22;;
42096;SDS011;27754;45.414;11.084;2024-01-30T00:45:22;183.73;;;38.67;;
42096;SDS011;27754;45.414;11.084;2024-01-30T00:47:50;147.02;;;34.88;;
42096;SDS011;27754;45.414;11.084;2024-01-30T00:50:17;94.78;;;35.25;;
42096;SDS011;27754;45.414;11.084;2024-01-30T00:52:44;161.23;;;35.40;;
42096;SDS011;27754;45.414;11.084;2024-01-30T00:55:12;129.05;;;34.28;;
42096;SDS011;27754;45.414;11.084;2024-01-30T00:57:39;120.72;;;34.30;;
42096;SDS011;27754;45.414;11.084;2024-01-30T01:00:11;100.40;;;32.95;;
42096;SDS011;27754;45.414;11.084;2024-01-30T01:02:38;135.88;;;36.15;;
42096;SDS011;27754;45.414;11.084;2024-01-30T01:05:06;90.13;;;31.52;;
42096;SDS011;27754;45.414;11.084;2024-01-30T01:07:33;240.55;;;38.83;;
42096;SDS011;27754;45.414;11.084;2024-01-30T01:10:00;129.93;;;32.65;;
42096;SDS011;27754;45.414;11.084;2024-01-30T01:12:27;113.95;;;31.10;;
42096;SDS011;27754;45.414;11.084;2024-01-30T01:14:55;102.38;;;30.10;;
42096;SDS011;27754;45.414;11.084;2024-01-30T01:17:22;144.43;;;32.78;;
42096;SDS011;27754;45.414;11.084;2024-01-30T01:19:49;104.32;;;30.42;;
42096;SDS011;27754;45.414;11.084;2024-01-30T01:22:16;103.97;;;28.98;;
42096;SDS011;27754;45.414;11.084;2024-01-30T01:24:45;173.27;;;32.22;;
42096;SDS011;27754;45.414;11.084;2024-01-30T01:27:12;134.60;;;28.75;;
42096;SDS011;27754;45.414;11.084;2024-01-30T01:29:39;162.70;;;30.58;;
42096;SDS011;27754;45.414;11.084;2024-01-30T01:32:05;189.70;;;31.80;;
42096;SDS011;27754;45.414;11.084;2024-01-30T01:34:32;187.73;;;31.95;;
42096;SDS011;27754;45.414;11.084;2024-01-30T01:37:00;214.38;;;32.78;;
42096;SDS011;27754;45.414;11.084;2024-01-30T01:39:27;108.00;;;26.77;;
42096;SDS011;27754;45.414;11.084;2024-01-30T01:41:54;184.52;;;30.58;;
42096;SDS011;27754;45.414;11.084;2024-01-30T01:44:21;88.68;;;25.33;;
42096;SDS011;27754;45.414;11.084;2024-01-30T01:46:48;115.38;;;27.85;;
42096;SDS011;27754;45.414;11.084;2024-01-30T01:49:15;113.30;;;27.02;;
42096;SDS011;27754;45.414;11.084;2024-01-30T01:51:42;61.28;;;24.13;;
42096;SDS011;27754;45.414;11.084;2024-01-30T01:54:12;87.22;;;24.55;;
42096;SDS011;27754;45.414;11.084;2024-01-30T01:56:39;104.70;;;27.67;;
42096;SDS011;27754;45.414;11.084;2024-01-30T01:59:07;86.18;;;25.38;;
42096;SDS011;27754;45.414;11.084;2024-01-30T02:01:36;235.65;;;31.52;;
42096;SDS011;27754;45.414;11.084;2024-01-30T02:04:04;61.45;;;24.90;;
42096;SDS011;27754;45.414;11.084;2024-01-30T02:06:31;70.72;;;23.73;;
42096;SDS011;27754;45.414;11.084;2024-01-30T02:08:59;99.70;;;26.13;;
42096;SDS011;27754;45.414;11.084;2024-01-30T02:11:27;70.65;;;25.30;;
42096;SDS011;27754;45.414;11.084;2024-01-30T02:13:55;112.80;;;26.58;;
42096;SDS011;27754;45.414;11.084;2024-01-30T02:16:22;85.43;;;25.40;;
42096;SDS011;27754;45.414;11.084;2024-01-30T02:18:49;77.00;;;25.52;;
42096;SDS011;27754;45.414;11.084;2024-01-30T02:21:16;95.30;;;28.33;;
42096;SDS011;27754;45.414;11.084;2024-01-30T02:23:46;73.20;;;26.95;;
42096;SDS011;27754;45.414;11.084;2024-01-30T02:26:13;71.93;;;24.98;;
42096;SDS011;27754;45.414;11.084;2024-01-30T02:28:40;94.68;;;24.70;;
42096;SDS011;27754;45.414;11.084;2024-01-30T02:31:07;75.47;;;25.30;;
42096;SDS011;27754;45.414;11.084;2024-01-30T02:33:34;70.97;;;25.23;;
42096;SDS011;27754;45.414;11.084;2024-01-30T02:36:01;44.15;;;24.45;;
42096;SDS011;27754;45.414;11.084;2024-01-30T02:38:29;34.83;;;23.42;;
42096;SDS011;27754;45.414;11.084;2024-01-30T02:40:56;45.78;;;26.08;;
42096;SDS011;27754;45.414;11.084;2024-01-30T02:43:23;48.88;;;25.98;;
42096;SDS011;27754;45.414;11.084;2024-01-30T02:45:50;42.08;;;25.35;;
42096;SDS011;27754;45.414;11.084;2024-01-30T02:48:17;99.20;;;26.20;;
42096;SDS011;27754;45.414;11.084;2024-01-30T02:50:44;44.42;;;25.13;;
42096;SDS011;27754;45.414;11.084;2024-01-30T02:53:12;52.67;;;26.98;;
42096;SDS011;27754;45.414;11.084;2024-01-30T02:55:40;61.10;;;28.00;;
42096;SDS011;27754;45.414;11.084;2024-01-30T02:58:07;48.85;;;26.55;;
42096;SDS011;27754;45.414;11.084;2024-01-30T03:00:34;50.20;;;28.90;;
42096;SDS011;27754;45.414;11.084;2024-01-30T03:03:01;56.58;;;26.45;;
42096;SDS011;27754;45.414;11.084;2024-01-30T03:05:28;105.82;;;28.90;;
42096;SDS011;27754;45.414;11.084;2024-01-30T03:07:55;282.50;;;38.72;;
42096;SDS011;27754;45.414;11.084;2024-01-30T03:10:23;234.80;;;37.15;;
42096;SDS011;27754;45.414;11.084;2024-01-30T03:12:50;84.70;;;28.88;;
42096;SDS011;27754;45.414;11.084;2024-01-30T03:15:17;195.23;;;34.78;;
42096;SDS011;27754;45.414;11.084;2024-01-30T03:17:44;131.52;;;30.45;;
42096;SDS011;27754;45.414;11.084;2024-01-30T03:20:11;63.88;;;28.42;;
42096;SDS011;27754;45.414;11.084;2024-01-30T03:22:38;84.13;;;29.95;;
42096;SDS011;27754;45.414;11.084;2024-01-30T03:25:05;229.48;;;38.40;;
42096;SDS011;27754;45.414;11.084;2024-01-30T03:27:32;95.38;;;28.05;;
42096;SDS011;27754;45.414;11.084;2024-01-30T03:29:59;92.32;;;30.40;;
42096;SDS011;27754;45.414;11.084;2024-01-30T03:32:26;154.52;;;31.42;;
42096;SDS011;27754;45.414;11.084;2024-01-30T03:34:53;120.57;;;29.17;;
42096;SDS011;27754;45.414;11.084;2024-01-30T03:37:21;184.82;;;32.67;;
42096;SDS011;27754;45.414;11.084;2024-01-30T03:39:48;288.50;;;37.47;;
42096;SDS011;27754;45.414;11.084;2024-01-30T03:42:15;84.68;;;26.50;;
42096;SDS011;27754;45.414;11.084;2024-01-30T03:44:42;122.20;;;28.52;;
42096;SDS011;27754;45.414;11.084;2024-01-30T03:47:09;158.02;;;30.80;;
42096;SDS011;27754;45.414;11.084;2024-01-30T03:49:36;135.32;;;29.63;;
42096;SDS011;27754;45.414;11.084;2024-01-30T03:52:03;165.80;;;29.70;;
42096;SDS011;27754;45.414;11.084;2024-01-30T03:54:30;171.85;;;31.83;;
42096;SDS011;27754;45.414;11.084;2024-01-30T03:56:57;142.18;;;31.08;;
42096;SDS011;27754;45.414;11.084;2024-01-30T03:59:24;104.63;;;29.52;;
42096;SDS011;27754;45.414;11.084;2024-01-30T04:01:51;110.03;;;29.20;;
42096;SDS011;27754;45.414;11.084;2024-01-30T04:04:19;70.32;;;27.48;;
42096;SDS011;27754;45.414;11.084;2024-01-30T04:06:46;127.78;;;31.13;;
42096;SDS011;27754;45.414;11.084;2024-01-30T04:09:13;90.88;;;28.75;;
42096;SDS011;27754;45.414;11.084;2024-01-30T04:11:41;128.70;;;29.77;;
42096;SDS011;27754;45.414;11.084;2024-01-30T04:14:08;58.03;;;26.48;;
42096;SDS011;27754;45.414;11.084;2024-01-30T04:16:35;77.03;;;27.90;;
42096;SDS011;27754;45.414;11.084;2024-01-30T04:19:02;71.93;;;26.48;;
42096;SDS011;27754;45.414;11.084;2024-01-30T04:21:29;209.02;;;34.97;;
42096;SDS011;27754;45.414;11.084;2024-01-30T04:23:56;67.57;;;25.42;;
42096;SDS011;27754;45.414;11.084;2024-01-30T04:26:24;117.95;;;27.38;;
42096;SDS011;27754;45.414;11.084;2024-01-30T04:28:51;103.45;;;26.30;;
42096;SDS011;27754;45.414;11.084;2024-01-30T04:31:18;91.47;;;26.35;;
42096;SDS011;27754;45.414;11.084;2024-01-30T04:33:45;160.48;;;29.98;;
42096;SDS011;27754;45.414;11.084;2024-01-30T04:36:12;217.48;;;33.67;;
42096;SDS011;27754;45.414;11.084;2024-01-30T04:38:39;164.98;;;30.17;;
42096;SDS011;27754;45.414;11.084;2024-01-30T04:41:06;75.97;;;28.35;;
42096;SDS011;27754;45.414;11.084;2024-01-30T04:43:33;93.05;;;28.77;;
42096;SDS011;27754;45.414;11.084;2024-01-30T04:46:01;86.13;;;29.60;;
42096;SDS011;27754;45.414;11.084;2024-01-30T04:48:28;118.68;;;31.23;;
42096;SDS011;27754;45.414;11.084;2024-01-30T04:50:55;106.13;;;30.20;;
42096;SDS011;27754;45.414;11.084;2024-01-30T04:53:22;107.68;;;30.40;;
42096;SDS011;27754;45.414;11.084;2024-01-30T04:55:49;78.07;;;28.85;;
42096;SDS011;27754;45.414;11.084;2024-01-30T04:58:16;65.22;;;29.15;;
42096;SDS011;27754;45.414;11.084;2024-01-30T05:00:44;114.95;;;31.00;;
42096;SDS011;27754;45.414;11.084;2024-01-30T05:03:12;156.70;;;32.25;;
42096;SDS011;27754;45.414;11.084;2024-01-30T05:05:39;130.68;;;31.08;;
42096;SDS011;27754;45.414;11.084;2024-01-30T05:08:06;184.75;;;34.08;;
42096;SDS011;27754;45.414;11.084;2024-01-30T05:10:33;98.03;;;28.38;;
42096;SDS011;27754;45.414;11.084;2024-01-30T05:13:00;123.00;;;31.80;;
42096;SDS011;27754;45.414;11.084;2024-01-30T05:15:27;77.05;;;27.35;;
42096;SDS011;27754;45.414;11.084;2024-01-30T05:17:55;88.35;;;26.88;;
42096;SDS011;27754;45.414;11.084;2024-01-30T05:20:22;106.53;;;28.88;;
42096;SDS011;27754;45.414;11.084;2024-01-30T05:22:49;71.72;;;26.65;;
42096;SDS011;27754;45.414;11.084;2024-01-30T05:25:16;242.10;;;34.60;;
42096;SDS011;27754;45.414;11.084;2024-01-30T05:27:43;176.77;;;32.53;;
42096;SDS011;27754;45.414;11.084;2024-01-30T05:30:10;126.55;;;29.65;;
42096;SDS011;27754;45.414;11.084;2024-01-30T05:32:37;235.77;;;33.58;;
42096;SDS011;27754;45.414;11.084;2024-01-30T05:35:04;144.02;;;32.40;;
42096;SDS011;27754;45.414;11.084;2024-01-30T05:37:32;192.82;;;33.80;;
42096;SDS011;27754;45.414;11.084;2024-01-30T05:39:59;260.45;;;37.00;;
42096;SDS011;27754;45.414;11.084;2024-01-30T05:42:26;89.95;;;29.27;;
42096;SDS011;27754;45.414;11.084;2024-01-30T05:44:53;146.07;;;31.90;;
42096;SDS011;27754;45.414;11.084;2024-01-30T05:47:20;157.05;;;32.50;;
42096;SDS011;27754;45.414;11.084;2024-01-30T05:49:47;83.38;;;29.67;;
42096;SDS011;27754;45.414;11.084;2024-01-30T05:52:14;150.07;;;32.10;;
42096;SDS011;27754;45.414;11.084;2024-01-30T05:54:42;119.55;;;34.10;;
42096;SDS011;27754;45.414;11.084;2024-01-30T05:57:09;125.28;;;30.40;;
42096;SDS011;27754;45.414;11.084;2024-01-30T05:59:36;141.70;;;34.47;;
42096;SDS011;27754;45.414;11.084;2024-01-30T06:02:07;82.10;;;30.83;;
42096;SDS011;27754;45.414;11.084;2024-01-30T06:04:34;93.57;;;29.10;;
42096;SDS011;27754;45.414;11.084;2024-01-30T06:07:01;154.60;;;34.38;;
42096;SDS011;27754;45.414;11.084;2024-01-30T06:09:29;66.95;;;28.70;;
42096;SDS011;27754;45.414;11.084;2024-01-30T06:11:56;62.05;;;26.30;;
42096;SDS011;27754;45.414;11.084;2024-01-30T06:14:23;109.40;;;30.88;;
42096;SDS011;27754;45.414;11.084;2024-01-30T06:16:50;112.32;;;28.55;;
42096;SDS011;27754;45.414;11.084;2024-01-30T06:19:17;112.90;;;29.60;;
42096;SDS011;27754;45.414;11.084;2024-01-30T06:21:44;199.98;;;32.85;;
42096;SDS011;27754;45.414;11.084;2024-01-30T06:24:11;100.68;;;27.80;;
42096;SDS011;27754;45.414;11.084;2024-01-30T06:26:38;128.88;;;30.15;;
42096;SDS011;27754;45.414;11.084;2024-01-30T06:29:06;104.75;;;29.77;;
42096;SDS011;27754;45.414;11.084;2024-01-30T06:31:39;70.82;;;27.83;;
42096;SDS011;27754;45.414;11.084;2024-01-30T06:34:08;124.18;;;28.75;;
42096;SDS011;27754;45.414;11.084;2024-01-30T06:36:38;99.47;;;28.38;;
42096;SDS011;27754;45.414;11.084;2024-01-30T06:39:05;118.88;;;30.92;;
42096;SDS011;27754;45.414;11.084;2024-01-30T06:41:32;106.75;;;31.15;;
42096;SDS011;27754;45.414;11.084;2024-01-30T06:44:01;101.57;;;29.95;;
42096;SDS011;27754;45.414;11.084;2024-01-30T06:46:30;68.32;;;27.80;;
42096;SDS011;27754;45.414;11.084;2024-01-30T06:48:57;99.90;;;28.83;;
42096;SDS011;27754;45.414;11.084;2024-01-30T06:51:24;110.45;;;30.38;;
42096;SDS011;27754;45.414;11.084;2024-01-30T06:53:51;164.07;;;35.35;;
42096;SDS011;27754;45.414;11.084;2024-01-30T06:56:18;157.50;;;30.15;;
42096;SDS011;27754;45.414;11.084;2024-01-30T06:58:50;185.45;;;34.53;;
42096;SDS011;27754;45.414;11.084;2024-01-30T07:01:18;246.48;;;32.53;;
42096;SDS011;27754;45.414;11.084;2024-01-30T07:03:45;167.60;;;31.92;;
42096;SDS011;27754;45.414;11.084;2024-01-30T07:06:12;127.72;;;28.95;;
42096;SDS011;27754;45.414;11.084;2024-01-30T07:08:39;203.45;;;34.17;;
42096;SDS011;27754;45.414;11.084;2024-01-30T07:11:06;188.50;;;32.65;;
42096;SDS011;27754;45.414;11.084;2024-01-30T07:13:34;121.95;;;29.83;;
42096;SDS011;27754;45.414;11.084;2024-01-30T07:16:01;113.85;;;28.33;;
42096;SDS011;27754;45.414;11.084;2024-01-30T07:18:28;157.73;;;31.15;;
42096;SDS011;27754;45.414;11.084;2024-01-30T07:20:55;184.77;;;35.47;;
42096;SDS011;27754;45.414;11.084;2024-01-30T07:23:22;145.82;;;33.03;;
42096;SDS011;27754;45.414;11.084;2024-01-30T07:25:49;75.55;;;29.42;;
42096;SDS011;27754;45.414;11.084;2024-01-30T07:28:17;87.65;;;27.77;;
42096;SDS011;27754;45.414;11.084;2024-01-30T07:30:44;99.95;;;29.02;;
42096;SDS011;27754;45.414;11.084;2024-01-30T07:33:12;112.75;;;31.08;;
42096;SDS011;27754;45.414;11.084;2024-01-30T07:35:39;95.22;;;29.13;;
42096;SDS011;27754;45.414;11.084;2024-01-30T07:38:06;95.00;;;31.38;;
42096;SDS011;27754;45.414;11.084;2024-01-30T07:40:33;65.13;;;27.23;;
42096;SDS011;27754;45.414;11.084;2024-01-30T07:43:00;139.85;;;33.72;;
42096;SDS011;27754;45.414;11.084;2024-01-30T07:45:29;123.93;;;33.17;;
42096;SDS011;27754;45.414;11.084;2024-01-30T07:48:00;76.30;;;30.45;;
42096;SDS011;27754;45.414;11.084;2024-01-30T07:50:27;73.30;;;30.77;;
42096;SDS011;27754;45.414;11.084;2024-01-30T07:52:55;78.70;;;29.80;;
42096;SDS011;27754;45.414;11.084;2024-01-30T07:55:23;78.00;;;31.00;;
42096;SDS011;27754;45.414;11.084;2024-01-30T07:57:54;130.63;;;31.02;;
42096;SDS011;27754;45.414;11.084;2024-01-30T08:00:22;64.90;;;28.75;;
42096;SDS011;27754;45.414;11.084;2024-01-30T08:02:49;58.83;;;28.92;;
42096;SDS011;27754;45.414;11.084;2024-01-30T08:05:16;71.68;;;30.25;;
42096;SDS011;27754;45.414;11.084;2024-01-30T08:07:43;53.95;;;27.65;;
42096;SDS011;27754;45.414;11.084;2024-01-30T08:10:11;59.72;;;30.58;;
42096;SDS011;27754;45.414;11.084;2024-01-30T08:12:38;56.00;;;28.05;;
42096;SDS011;27754;45.414;11.084;2024-01-30T08:15:05;76.28;;;30.27;;
42096;SDS011;27754;45.414;11.084;2024-01-30T08:17:32;98.18;;;29.38;;
42096;SDS011;27754;45.414;11.084;2024-01-30T08:20:00;94.47;;;31.67;;
42096;SDS011;27754;45.414;11.084;2024-01-30T08:22:27;84.57;;;28.60;;
42096;SDS011;27754;45.414;11.084;2024-01-30T08:24:54;76.20;;;29.60;;
42096;SDS011;27754;45.414;11.084;2024-01-30T08:27:21;94.13;;;32.45;;
42096;SDS011;27754;45.414;11.084;2024-01-30T08:29:48;78.63;;;29.90;;
42096;SDS011;27754;45.414;11.084;2024-01-30T08:32:16;79.30;;;27.85;;
42096;SDS011;27754;45.414;11.084;2024-01-30T08:34:43;64.88;;;30.05;;
42096;SDS011;27754;45.414;11.084;2024-01-30T08:37:11;64.30;;;26.58;;
42096;SDS011;27754;45.414;11.084;2024-01-30T08:39:38;88.10;;;27.90;;
42096;SDS011;27754;45.414;11.084;2024-01-30T08:42:05;88.80;;;28.55;;
42096;SDS011;27754;45.414;11.084;2024-01-30T08:44:32;61.20;;;27.65;;
42096;SDS011;27754;45.414;11.084;2024-01-30T08:46:59;62.65;;;26.83;;
42096;SDS011;27754;45.414;11.084;2024-01-30T08:49:26;70.10;;;27.20;;
42096;SDS011;27754;45.414;11.084;2024-01-30T08:51:53;65.35;;;30.08;;
42096;SDS011;27754;45.414;11.084;2024-01-30T08:54:20;138.23;;;31.13;;
42096;SDS011;27754;45.414;11.084;2024-01-30T08:56:47;74.90;;;27.45;;
42096;SDS011;27754;45.414;11.084;2024-01-30T08:59:14;75.68;;;26.65;;
42096;SDS011;27754;45.414;11.084;2024-01-30T09:01:41;71.43;;;28.08;;
42096;SDS011;27754;45.414;11.084;2024-01-30T09:04:21;54.05;;;28.60;;
42096;SDS011;27754;45.414;11.084;2024-01-30T09:06:51;51.53;;;26.40;;
42096;SDS011;27754;45.414;11.084;2024-01-30T09:09:19;72.03;;;29.95;;
42096;SDS011;27754;45.414;11.084;2024-01-30T09:11:47;76.68;;;29.48;;
42096;SDS011;27754;45.414;11.084;2024-01-30T09:14:14;104.50;;;30.65;;
42096;SDS011;27754;45.414;11.084;2024-01-30T09:16:40;63.38;;;30.73;;
42096;SDS011;27754;45.414;11.084;2024-01-30T09:19:07;75.40;;;30.08;;
42096;SDS011;27754;45.414;11.084;2024-01-30T09:21:35;70.00;;;29.95;;
42096;SDS011;27754;45.414;11.084;2024-01-30T09:24:02;78.10;;;30.38;;
42096;SDS011;27754;45.414;11.084;2024-01-30T09:26:32;60.90;;;29.95;;
42096;SDS011;27754;45.414;11.084;2024-01-30T09:28:59;51.67;;;26.92;;
42096;SDS011;27754;45.414;11.084;2024-01-30T09:31:26;54.10;;;28.95;;
42096;SDS011;27754;45.414;11.084;2024-01-30T09:33:54;55.15;;;28.70;;
42096;SDS011;27754;45.414;11.084;2024-01-30T09:36:21;52.97;;;27.27;;
42096;SDS011;27754;45.414;11.084;2024-01-30T09:38:48;63.00;;;27.10;;
42096;SDS011;27754;45.414;11.084;2024-01-30T09:41:15;51.92;;;26.70;;
42096;SDS011;27754;45.414;11.084;2024-01-30T09:43:43;54.42;;;28.23;;
42096;SDS011;27754;45.414;11.084;2024-01-30T09:46:16;50.90;;;28.85;;
42096;SDS011;27754;45.414;11.084;2024-01-30T09:48:46;58.25;;;29.13;;
42096;SDS011;27754;45.414;11.084;2024-01-30T09:51:14;65.22;;;30.73;;
42096;SDS011;27754;45.414;11.084;2024-01-30T09:53:42;90.50;;;29.50;;
42096;SDS011;27754;45.414;11.084;2024-01-30T09:56:12;57.55;;;31.42;;
42096;SDS011;27754;45.414;11.084;2024-01-30T09:58:40;61.47;;;30.30;;
42096;SDS011;27754;45.414;11.084;2024-01-30T10:01:08;73.93;;;29.90;;
42096;SDS011;27754;45.414;11.084;2024-01-30T10:03:35;87.07;;;30.48;;
42096;SDS011;27754;45.414;11.084;2024-01-30T10:06:03;59.38;;;30.17;;
42096;SDS011;27754;45.414;11.084;2024-01-30T10:08:30;86.07;;;33.90;;
42096;SDS011;27754;45.414;11.084;2024-01-30T10:10:57;71.00;;;31.77;;
42096;SDS011;27754;45.414;11.084;2024-01-30T10:13:25;75.63;;;32.28;;
42096;SDS011;27754;45.414;11.084;2024-01-30T10:15:53;65.25;;;30.65;;
42096;SDS011;27754;45.414;11.084;2024-01-30T10:18:24;63.05;;;31.45;;
42096;SDS011;27754;45.414;11.084;2024-01-30T10:20:51;60.90;;;33.80;;
42096;SDS011;27754;45.414;11.084;2024-01-30T10:23:18;73.22;;;34.13;;
42096;SDS011;27754;45.414;11.084;2024-01-30T10:25:46;69.70;;;31.63;;
42096;SDS011;27754;45.414;11.084;2024-01-30T10:28:13;64.05;;;33.42;;
42096;SDS011;27754;45.414;11.084;2024-01-30T10:30:41;76.57;;;35.72;;
42096;SDS011;27754;45.414;11.084;2024-01-30T10:33:07;59.88;;;33.67;;
42096;SDS011;27754;45.414;11.084;2024-01-30T10:35:35;58.78;;;35.22;;
42096;SDS011;27754;45.414;11.084;2024-01-30T10:38:02;62.85;;;36.75;;
42096;SDS011;27754;45.414;11.084;2024-01-30T10:40:32;61.05;;;35.00;;
42096;SDS011;27754;45.414;11.084;2024-01-30T10:43:02;54.95;;;35.70;;
42096;SDS011;27754;45.414;11.084;2024-01-30T10:45:31;61.10;;;35.35;;
42096;SDS011;27754;45.414;11.084;2024-01-30T10:47:59;62.72;;;35.33;;
42096;SDS011;27754;45.414;11.084;2024-01-30T10:50:27;57.25;;;35.15;;
42096;SDS011;27754;45.414;11.084;2024-01-30T10:52:57;65.88;;;35.42;;
42096;SDS011;27754;45.414;11.084;2024-01-30T10:55:25;56.42;;;34.65;;
42096;SDS011;27754;45.414;11.084;2024-01-30T10:57:55;59.05;;;36.03;;
42096;SDS011;27754;45.414;11.084;2024-01-30T11:00:22;55.00;;;32.70;;
42096;SDS011;27754;45.414;11.084;2024-01-30T11:02:50;60.85;;;34.38;;
42096;SDS011;27754;45.414;11.084;2024-01-30T11:05:25;58.10;;;34.03;;
42096;SDS011;27754;45.414;11.084;2024-01-30T11:07:59;56.95;;;33.40;;
42096;SDS011;27754;45.414;11.084;2024-01-30T11:10:44;62.78;;;36.45;;
42096;SDS011;27754;45.414;11.084;2024-01-30T11:13:15;53.55;;;32.88;;
42096;SDS011;27754;45.414;11.084;2024-01-30T11:15:47;60.13;;;34.90;;
42096;SDS011;27754;45.414;11.084;2024-01-30T11:18:31;57.53;;;33.63;;
42096;SDS011;27754;45.414;11.084;2024-01-30T11:20:59;56.72;;;35.50;;
42096;SDS011;27754;45.414;11.084;2024-01-30T11:23:29;58.67;;;35.08;;
42096;SDS011;27754;45.414;11.084;2024-01-30T11:25:57;58.38;;;34.45;;
42096;SDS011;27754;45.414;11.084;2024-01-30T11:28:24;65.13;;;36.70;;
42096;SDS011;27754;45.414;11.084;2024-01-30T11:31:04;58.50;;;34.97;;
42096;SDS011;27754;45.414;11.084;2024-01-30T11:33:33;55.65;;;33.85;;
42096;SDS011;27754;45.414;11.084;2024-01-30T11:36:01;57.67;;;34.45;;
42096;SDS011;27754;45.414;11.084;2024-01-30T11:38:33;54.78;;;33.78;;
42096;SDS011;27754;45.414;11.084;2024-01-30T11:41:00;54.33;;;34.15;;
42096;SDS011;27754;45.414;11.084;2024-01-30T11:43:27;53.35;;;33.00;;
42096;SDS011;27754;45.414;11.084;2024-01-30T11:45:54;60.85;;;34.70;;
42096;SDS011;27754;45.414;11.084;2024-01-30T11:48:21;54.28;;;32.90;;
42096;SDS011;27754;45.414;11.084;2024-01-30T11:50:49;58.75;;;34.35;;
42096;SDS011;27754;45.414;11.084;2024-01-30T11:53:17;58.30;;;35.25;;
42096;SDS011;27754;45.414;11.084;2024-01-30T11:55:49;57.83;;;34.55;;
42096;SDS011;27754;45.414;11.084;2024-01-30T11:58:16;62.97;;;35.63;;
42096;SDS011;27754;45.414;11.084;2024-01-30T12:00:52;50.83;;;33.25;;
42096;SDS011;27754;45.414;11.084;2024-01-30T12:03:23;58.20;;;35.13;;
42096;SDS011;27754;45.414;11.084;2024-01-30T12:05:56;52.85;;;33.47;;
42096;SDS011;27754;45.414;11.084;2024-01-30T12:08:26;52.38;;;32.80;;
42096;SDS011;27754;45.414;11.084;2024-01-30T12:10:57;51.33;;;31.00;;
42096;SDS011;27754;45.414;11.084;2024-01-30T12:13:32;50.17;;;30.42;;
42096;SDS011;27754;45.414;11.084;2024-01-30T12:16:00;51.88;;;31.05;;
42096;SDS011;27754;45.414;11.084;2024-01-30T12:18:28;49.30;;;30.67;;
42096;SDS011;27754;45.414;11.084;2024-01-30T12:20:58;50.20;;;31.45;;
42096;SDS011;27754;45.414;11.084;2024-01-30T12:23:27;50.70;;;31.85;;
42096;SDS011;27754;45.414;11.084;2024-01-30T12:25:54;51.70;;;31.63;;
42096;SDS011;27754;45.414;11.084;2024-01-30T12:28:22;48.92;;;30.88;;
42096;SDS011;27754;45.414;11.084;2024-01-30T12:30:49;46.55;;;31.52;;
42096;SDS011;27754;45.414;11.084;2024-01-30T12:33:16;51.00;;;31.05;;
42096;SDS011;27754;45.414;11.084;2024-01-30T12:35:47;47.85;;;29.27;;
42096;SDS011;27754;45.414;11.084;2024-01-30T12:38:27;44.20;;;28.73;;
42096;SDS011;27754;45.414;11.084;2024-01-30T12:40:54;44.50;;;29.27;;
42096;SDS011;27754;45.414;11.084;2024-01-30T12:43:23;47.35;;;30.83;;
42096;SDS011;27754;45.414;11.084;2024-01-30T12:46:03;44.78;;;29.33;;
42096;SDS011;27754;45.414;11.084;2024-01-30T12:48:31;47.97;;;30.17;;
42096;SDS011;27754;45.414;11.084;2024-01-30T12:50:58;45.45;;;29.83;;
42096;SDS011;27754;45.414;11.084;2024-01-30T12:53:25;46.15;;;29.27;;
42096;SDS011;27754;45.414;11.084;2024-01-30T12:55:52;43.05;;;26.27;;
42096;SDS011;27754;45.414;11.084;2024-01-30T12:58:20;44.85;;;28.67;;
42096;SDS011;27754;45.414;11.084;2024-01-30T13:00:48;43.47;;;28.75;;
42096;SDS011;27754;45.414;11.084;2024-01-30T13:03:15;42.95;;;28.25;;
42096;SDS011;27754;45.414;11.084;2024-01-30T13:05:42;40.78;;;27.63;;
42096;SDS011;27754;45.414;11.084;2024-01-30T13:08:09;39.53;;;27.50;;
42096;SDS011;27754;45.414;11.084;2024-01-30T13:10:36;39.60;;;26.73;;
42096;SDS011;27754;45.414;11.084;2024-01-30T13:13:03;44.33;;;28.23;;
42096;SDS011;27754;45.414;11.084;2024-01-30T13:15:34;41.40;;;28.60;;
42096;SDS011;27754;45.414;11.084;2024-01-30T13:18:01;44.90;;;28.25;;
42096;SDS011;27754;45.414;11.084;2024-01-30T13:20:29;43.08;;;28.83;;
42096;SDS011;27754;45.414;11.084;2024-01-30T13:22:57;40.08;;;27.33;;
42096;SDS011;27754;45.414;11.084;2024-01-30T13:25:24;40.60;;;27.13;;
42096;SDS011;27754;45.414;11.084;2024-01-30T13:27:51;42.58;;;28.50;;
42096;SDS011;27754;45.414;11.084;2024-01-30T13:30:19;37.30;;;26.13;;
42096;SDS011;27754;45.414;11.084;2024-01-30T13:32:46;42.60;;;27.98;;
42096;SDS011;27754;45.414;11.084;2024-01-30T13:35:13;42.22;;;28.08;;
42096;SDS011;27754;45.414;11.084;2024-01-30T13:37:41;38.53;;;25.58;;
42096;SDS011;27754;45.414;11.084;2024-01-30T13:40:08;40.90;;;26.15;;
42096;SDS011;27754;45.414;11.084;2024-01-30T13:42:39;43.03;;;27.05;;
42096;SDS011;27754;45.414;11.084;2024-01-30T13:45:06;37.47;;;26.88;;
42096;SDS011;27754;45.414;11.084;2024-01-30T13:47:36;41.22;;;26.85;;
42096;SDS011;27754;45.414;11.084;2024-01-30T13:50:04;42.13;;;26.15;;
42096;SDS011;27754;45.414;11.084;2024-01-30T13:52:33;41.78;;;26.15;;
42096;SDS011;27754;45.414;11.084;2024-01-30T13:55:10;40.80;;;25.88;;
42096;SDS011;27754;45.414;11.084;2024-01-30T13:57:37;36.33;;;25.42;;
42096;SDS011;27754;45.414;11.084;2024-01-30T14:00:05;43.03;;;26.42;;
42096;SDS011;27754;45.414;11.084;2024-01-30T14:02:38;42.78;;;27.15;;
42096;SDS011;27754;45.414;11.084;2024-01-30T14:05:05;43.28;;;27.33;;
42096;SDS011;27754;45.414;11.084;2024-01-30T14:07:33;43.75;;;26.67;;